sensor_id;sensor_type;location;lat;lon;timestamp;P1;durP1;ratioP1;P2;durP2;ratioP2
37647;SDS011;23490;53.656;10.076;2022-09-01T00:00:18;1.33;;;0.70;;
37647;SDS011;23490;53.656;10.076;2022-09-01T00:02:47;2.03;;;0.82;;
37647;SDS011;23490;53.656;10.076;2022-09-01T00:05:14;1.98;;;1.00;;
37647;SDS011;23490;53.656;10.076;2022-09-01T00:07:40;1.50;;;0.60;;
37647;SDS011;23490;53.656;10.076;2022-09-01T00:10:06;1.55;;;0.80;;
37647;SDS011;23490;53.656;10.076;2022-09-01T00:12:32;2.25;;;0.88;;
37647;SDS011;23490;53.656;10.076;2022-09-01T00:14:58;1.48;;;1.00;;
37647;SDS011;23490;53.656;10.076;2022-09-01T00:17:24;1.75;;;0.85;;
37647;SDS011;23490;53.656;10.076;2022-09-01T00:19:49;3.45;;;0.90;;
37647;SDS011;23490;53.656;10.076;2022-09-01T00:22:15;3.70;;;0.95;;
37647;SDS011;23490;53.656;10.076;2022-09-01T00:24:40;1.02;;;0.68;;
37647;SDS011;23490;53.656;10.076;2022-09-01T00:27:06;1.67;;;0.90;;
37647;SDS011;23490;53.656;10.076;2022-09-01T00:29:32;1.73;;;0.90;;
37647;SDS011;23490;53.656;10.076;2022-09-01T00:31:57;1.10;;;0.93;;
37647;SDS011;23490;53.656;10.076;2022-09-01T00:34:23;2.95;;;1.45;;
37647;SDS011;23490;53.656;10.076;2022-09-01T00:36:48;2.95;;;0.80;;
37647;SDS011;23490;53.656;10.076;2022-09-01T00:39:14;1.55;;;1.08;;
37647;SDS011;23490;53.656;10.076;2022-09-01T00:41:41;2.90;;;1.05;;
37647;SDS011;23490;53.656;10.076;2022-09-01T00:44:09;1.52;;;0.80;;
37647;SDS011;23490;53.656;10.076;2022-09-01T00:46:42;5.15;;;0.90;;
37647;SDS011;23490;53.656;10.076;2022-09-01T00:49:16;1.48;;;0.80;;
37647;SDS011;23490;53.656;10.076;2022-09-01T00:51:46;1.55;;;1.00;;
37647;SDS011;23490;53.656;10.076;2022-09-01T00:54:17;1.85;;;1.20;;
37647;SDS011;23490;53.656;10.076;2022-09-01T00:56:47;1.88;;;1.00;;
37647;SDS011;23490;53.656;10.076;2022-09-01T00:59:14;2.20;;;1.10;;
37647;SDS011;23490;53.656;10.076;2022-09-01T01:01:47;3.78;;;1.15;;
37647;SDS011;23490;53.656;10.076;2022-09-01T01:04:17;2.78;;;1.10;;
37647;SDS011;23490;53.656;10.076;2022-09-01T01:06:44;2.22;;;1.00;;
37647;SDS011;23490;53.656;10.076;2022-09-01T01:09:16;1.75;;;1.05;;
37647;SDS011;23490;53.656;10.076;2022-09-01T01:11:46;4.38;;;1.17;;
37647;SDS011;23490;53.656;10.076;2022-09-01T01:14:15;2.28;;;1.35;;
37647;SDS011;23490;53.656;10.076;2022-09-01T01:16:46;1.38;;;1.00;;
37647;SDS011;23490;53.656;10.076;2022-09-01T01:22:07;3.03;;;1.30;;
37647;SDS011;23490;53.656;10.076;2022-09-01T01:24:55;2.40;;;1.27;;
37647;SDS011;23490;53.656;10.076;2022-09-01T01:27:22;1.98;;;1.20;;
37647;SDS011;23490;53.656;10.076;2022-09-01T01:29:48;1.42;;;1.15;;
37647;SDS011;23490;53.656;10.076;2022-09-01T01:32:15;3.20;;;1.23;;
37647;SDS011;23490;53.656;10.076;2022-09-01T01:34:42;2.85;;;1.20;;
37647;SDS011;23490;53.656;10.076;2022-09-01T01:37:07;1.52;;;1.10;;
37647;SDS011;23490;53.656;10.076;2022-09-01T01:39:35;3.05;;;1.50;;
37647;SDS011;23490;53.656;10.076;2022-09-01T01:42:05;2.25;;;1.08;;
37647;SDS011;23490;53.656;10.076;2022-09-01T01:44:33;3.35;;;1.35;;
37647;SDS011;23490;53.656;10.076;2022-09-01T01:47:02;1.50;;;1.10;;
37647;SDS011;23490;53.656;10.076;2022-09-01T01:51:58;1.55;;;1.00;;
37647;SDS011;23490;53.656;10.076;2022-09-01T01:54:24;3.25;;;1.15;;
37647;SDS011;23490;53.656;10.076;2022-09-01T01:56:55;1.23;;;1.02;;
37647;SDS011;23490;53.656;10.076;2022-09-01T01:59:22;2.20;;;1.30;;
37647;SDS011;23490;53.656;10.076;2022-09-01T02:01:48;1.15;;;0.95;;
37647;SDS011;23490;53.656;10.076;2022-09-01T02:04:15;4.63;;;1.35;;
37647;SDS011;23490;53.656;10.076;2022-09-01T02:06:43;3.20;;;1.40;;
37647;SDS011;23490;53.656;10.076;2022-09-01T02:09:12;1.43;;;1.10;;
37647;SDS011;23490;53.656;10.076;2022-09-01T02:11:39;2.25;;;1.30;;
37647;SDS011;23490;53.656;10.076;2022-09-01T02:14:05;1.70;;;1.23;;
37647;SDS011;23490;53.656;10.076;2022-09-01T02:16:32;2.00;;;1.42;;
37647;SDS011;23490;53.656;10.076;2022-09-01T02:18:59;2.63;;;1.23;;
37647;SDS011;23490;53.656;10.076;2022-09-01T02:21:25;4.03;;;1.30;;
37647;SDS011;23490;53.656;10.076;2022-09-01T02:23:52;2.35;;;1.38;;
37647;SDS011;23490;53.656;10.076;2022-09-01T02:26:31;2.35;;;1.52;;
37647;SDS011;23490;53.656;10.076;2022-09-01T02:29:11;2.05;;;1.40;;
37647;SDS011;23490;53.656;10.076;2022-09-01T02:31:43;2.40;;;1.27;;
37647;SDS011;23490;53.656;10.076;2022-09-01T02:34:11;2.50;;;1.50;;
37647;SDS011;23490;53.656;10.076;2022-09-01T02:36:41;2.30;;;1.27;;
37647;SDS011;23490;53.656;10.076;2022-09-01T02:39:12;3.25;;;1.60;;
37647;SDS011;23490;53.656;10.076;2022-09-01T02:41:39;2.40;;;1.38;;
37647;SDS011;23490;53.656;10.076;2022-09-01T02:44:05;2.88;;;1.60;;
37647;SDS011;23490;53.656;10.076;2022-09-01T02:46:36;2.67;;;1.60;;
37647;SDS011;23490;53.656;10.076;2022-09-01T02:51:39;3.33;;;1.70;;
37647;SDS011;23490;53.656;10.076;2022-09-01T02:54:07;2.78;;;1.65;;
37647;SDS011;23490;53.656;10.076;2022-09-01T02:56:32;2.72;;;1.52;;
37647;SDS011;23490;53.656;10.076;2022-09-01T02:58:58;2.03;;;1.42;;
37647;SDS011;23490;53.656;10.076;2022-09-01T03:01:29;2.85;;;1.48;;
37647;SDS011;23490;53.656;10.076;2022-09-01T03:03:58;3.58;;;1.67;;
37647;SDS011;23490;53.656;10.076;2022-09-01T03:06:25;1.90;;;1.35;;
37647;SDS011;23490;53.656;10.076;2022-09-01T03:08:53;3.15;;;1.50;;
37647;SDS011;23490;53.656;10.076;2022-09-01T03:11:21;2.65;;;1.50;;
37647;SDS011;23490;53.656;10.076;2022-09-01T03:13:48;3.03;;;1.40;;
37647;SDS011;23490;53.656;10.076;2022-09-01T03:16:14;2.42;;;1.40;;
37647;SDS011;23490;53.656;10.076;2022-09-01T03:18:40;3.80;;;1.60;;
37647;SDS011;23490;53.656;10.076;2022-09-01T03:21:07;2.08;;;1.60;;
37647;SDS011;23490;53.656;10.076;2022-09-01T03:23:33;2.45;;;1.60;;
37647;SDS011;23490;53.656;10.076;2022-09-01T03:26:00;3.10;;;1.60;;
37647;SDS011;23490;53.656;10.076;2022-09-01T03:28:25;3.28;;;1.80;;
37647;SDS011;23490;53.656;10.076;2022-09-01T03:30:52;3.60;;;1.98;;
37647;SDS011;23490;53.656;10.076;2022-09-01T03:33:20;5.10;;;2.03;;
37647;SDS011;23490;53.656;10.076;2022-09-01T03:35:49;4.47;;;2.20;;
37647;SDS011;23490;53.656;10.076;2022-09-01T03:38:14;4.10;;;2.35;;
37647;SDS011;23490;53.656;10.076;2022-09-01T03:43:10;3.85;;;2.45;;
37647;SDS011;23490;53.656;10.076;2022-09-01T03:45:37;4.40;;;2.40;;
37647;SDS011;23490;53.656;10.076;2022-09-01T03:48:06;5.03;;;2.25;;
37647;SDS011;23490;53.656;10.076;2022-09-01T03:50:40;3.80;;;2.30;;
37647;SDS011;23490;53.656;10.076;2022-09-01T03:53:11;3.42;;;2.30;;
37647;SDS011;23490;53.656;10.076;2022-09-01T03:55:48;3.30;;;2.03;;
37647;SDS011;23490;53.656;10.076;2022-09-01T03:58:16;3.95;;;2.17;;
37647;SDS011;23490;53.656;10.076;2022-09-01T04:00:44;3.13;;;1.80;;
37647;SDS011;23490;53.656;10.076;2022-09-01T04:03:13;4.00;;;2.40;;
37647;SDS011;23490;53.656;10.076;2022-09-01T04:05:41;3.15;;;2.30;;
37647;SDS011;23490;53.656;10.076;2022-09-01T04:08:09;3.58;;;2.15;;
37647;SDS011;23490;53.656;10.076;2022-09-01T04:10:41;3.35;;;2.40;;
37647;SDS011;23490;53.656;10.076;2022-09-01T04:13:18;4.03;;;2.22;;
37647;SDS011;23490;53.656;10.076;2022-09-01T04:15:46;3.72;;;2.08;;
37647;SDS011;23490;53.656;10.076;2022-09-01T04:18:12;4.63;;;2.40;;
37647;SDS011;23490;53.656;10.076;2022-09-01T04:20:45;2.92;;;2.00;;
37647;SDS011;23490;53.656;10.076;2022-09-01T04:23:20;3.88;;;1.88;;
37647;SDS011;23490;53.656;10.076;2022-09-01T04:26:04;2.92;;;2.03;;
37647;SDS011;23490;53.656;10.076;2022-09-01T04:31:02;4.10;;;2.22;;
37647;SDS011;23490;53.656;10.076;2022-09-01T04:33:32;3.42;;;2.35;;
37647;SDS011;23490;53.656;10.076;2022-09-01T04:36:23;3.33;;;2.28;;
37647;SDS011;23490;53.656;10.076;2022-09-01T04:38:58;4.68;;;2.42;;
37647;SDS011;23490;53.656;10.076;2022-09-01T04:43:56;3.75;;;2.28;;
37647;SDS011;23490;53.656;10.076;2022-09-01T04:46:23;4.18;;;3.00;;
37647;SDS011;23490;53.656;10.076;2022-09-01T04:48:53;3.78;;;2.65;;
37647;SDS011;23490;53.656;10.076;2022-09-01T04:51:20;5.43;;;2.90;;
37647;SDS011;23490;53.656;10.076;2022-09-01T04:53:46;4.72;;;2.85;;
37647;SDS011;23490;53.656;10.076;2022-09-01T04:56:16;6.18;;;3.40;;
37647;SDS011;23490;53.656;10.076;2022-09-01T04:58:47;4.05;;;3.20;;
37647;SDS011;23490;53.656;10.076;2022-09-01T05:01:17;6.75;;;3.30;;
37647;SDS011;23490;53.656;10.076;2022-09-01T05:03:45;4.38;;;3.00;;
37647;SDS011;23490;53.656;10.076;2022-09-01T05:06:25;3.92;;;2.60;;
37647;SDS011;23490;53.656;10.076;2022-09-01T05:08:52;6.75;;;3.53;;
37647;SDS011;23490;53.656;10.076;2022-09-01T05:11:18;4.53;;;3.10;;
37647;SDS011;23490;53.656;10.076;2022-09-01T05:13:46;8.23;;;3.20;;
37647;SDS011;23490;53.656;10.076;2022-09-01T05:16:13;5.45;;;3.13;;
37647;SDS011;23490;53.656;10.076;2022-09-01T05:18:43;9.85;;;3.65;;
37647;SDS011;23490;53.656;10.076;2022-09-01T05:21:12;4.97;;;3.25;;
37647;SDS011;23490;53.656;10.076;2022-09-01T05:23:41;6.30;;;2.75;;
37647;SDS011;23490;53.656;10.076;2022-09-01T05:26:11;5.00;;;3.28;;
37647;SDS011;23490;53.656;10.076;2022-09-01T05:28:41;6.05;;;3.10;;
37647;SDS011;23490;53.656;10.076;2022-09-01T05:31:07;6.35;;;3.22;;
37647;SDS011;23490;53.656;10.076;2022-09-01T05:33:34;5.25;;;3.25;;
37647;SDS011;23490;53.656;10.076;2022-09-01T05:36:01;8.20;;;4.00;;
37647;SDS011;23490;53.656;10.076;2022-09-01T05:38:28;6.43;;;3.45;;
37647;SDS011;23490;53.656;10.076;2022-09-01T05:40:56;5.60;;;3.22;;
37647;SDS011;23490;53.656;10.076;2022-09-01T05:43:26;7.05;;;3.45;;
37647;SDS011;23490;53.656;10.076;2022-09-01T05:45:53;5.15;;;3.67;;
37647;SDS011;23490;53.656;10.076;2022-09-01T05:48:20;10.38;;;3.40;;
37647;SDS011;23490;53.656;10.076;2022-09-01T05:50:47;6.43;;;3.55;;
37647;SDS011;23490;53.656;10.076;2022-09-01T05:53:13;8.13;;;3.85;;
37647;SDS011;23490;53.656;10.076;2022-09-01T05:55:44;10.15;;;3.58;;
37647;SDS011;23490;53.656;10.076;2022-09-01T06:00:42;5.88;;;3.35;;
37647;SDS011;23490;53.656;10.076;2022-09-01T06:03:12;4.32;;;2.75;;
37647;SDS011;23490;53.656;10.076;2022-09-01T06:05:39;5.75;;;3.30;;
37647;SDS011;23490;53.656;10.076;2022-09-01T06:08:06;7.35;;;2.90;;
37647;SDS011;23490;53.656;10.076;2022-09-01T06:10:37;6.07;;;2.90;;
37647;SDS011;23490;53.656;10.076;2022-09-01T06:13:04;5.27;;;2.90;;
37647;SDS011;23490;53.656;10.076;2022-09-01T06:15:30;4.22;;;2.38;;
37647;SDS011;23490;53.656;10.076;2022-09-01T06:17:57;4.03;;;2.60;;
37647;SDS011;23490;53.656;10.076;2022-09-01T06:20:22;7.28;;;3.03;;
37647;SDS011;23490;53.656;10.076;2022-09-01T06:22:49;4.07;;;2.65;;
37647;SDS011;23490;53.656;10.076;2022-09-01T06:25:17;5.90;;;2.38;;
37647;SDS011;23490;53.656;10.076;2022-09-01T06:27:46;5.30;;;2.65;;
37647;SDS011;23490;53.656;10.076;2022-09-01T06:30:13;2.78;;;2.10;;
37647;SDS011;23490;53.656;10.076;2022-09-01T06:32:44;7.95;;;2.47;;
37647;SDS011;23490;53.656;10.076;2022-09-01T06:35:10;3.45;;;2.20;;
37647;SDS011;23490;53.656;10.076;2022-09-01T06:37:40;3.95;;;2.08;;
37647;SDS011;23490;53.656;10.076;2022-09-01T06:40:11;6.15;;;1.80;;
37647;SDS011;23490;53.656;10.076;2022-09-01T06:42:44;3.78;;;1.98;;
37647;SDS011;23490;53.656;10.076;2022-09-01T06:45:11;6.03;;;2.00;;
37647;SDS011;23490;53.656;10.076;2022-09-01T06:50:11;4.20;;;1.90;;
37647;SDS011;23490;53.656;10.076;2022-09-01T06:52:42;4.90;;;1.73;;
37647;SDS011;23490;53.656;10.076;2022-09-01T06:55:08;2.17;;;1.38;;
37647;SDS011;23490;53.656;10.076;2022-09-01T06:57:35;3.95;;;1.50;;
37647;SDS011;23490;53.656;10.076;2022-09-01T07:00:03;3.45;;;1.30;;
37647;SDS011;23490;53.656;10.076;2022-09-01T07:02:31;3.83;;;1.52;;
37647;SDS011;23490;53.656;10.076;2022-09-01T07:04:57;3.15;;;1.05;;
37647;SDS011;23490;53.656;10.076;2022-09-01T07:07:22;1.95;;;1.15;;
37647;SDS011;23490;53.656;10.076;2022-09-01T07:09:48;2.95;;;1.10;;
37647;SDS011;23490;53.656;10.076;2022-09-01T07:12:13;2.92;;;0.95;;
37647;SDS011;23490;53.656;10.076;2022-09-01T07:14:39;1.73;;;1.00;;
37647;SDS011;23490;53.656;10.076;2022-09-01T07:17:06;3.63;;;1.08;;
37647;SDS011;23490;53.656;10.076;2022-09-01T07:19:31;3.58;;;1.08;;
37647;SDS011;23490;53.656;10.076;2022-09-01T07:21:58;3.60;;;0.90;;
37647;SDS011;23490;53.656;10.076;2022-09-01T07:24:23;3.75;;;0.98;;
37647;SDS011;23490;53.656;10.076;2022-09-01T07:26:50;1.08;;;0.60;;
37647;SDS011;23490;53.656;10.076;2022-09-01T07:29:16;1.65;;;0.60;;
37647;SDS011;23490;53.656;10.076;2022-09-01T07:31:45;2.03;;;0.93;;
37647;SDS011;23490;53.656;10.076;2022-09-01T07:34:11;1.45;;;0.77;;
37647;SDS011;23490;53.656;10.076;2022-09-01T07:36:39;2.63;;;0.60;;
37647;SDS011;23490;53.656;10.076;2022-09-01T07:39:06;2.83;;;1.05;;
37647;SDS011;23490;53.656;10.076;2022-09-01T07:41:34;1.25;;;0.57;;
37647;SDS011;23490;53.656;10.076;2022-09-01T07:44:01;1.95;;;0.55;;
37647;SDS011;23490;53.656;10.076;2022-09-01T07:46:29;2.47;;;0.63;;
37647;SDS011;23490;53.656;10.076;2022-09-01T07:48:57;1.88;;;0.60;;
37647;SDS011;23490;53.656;10.076;2022-09-01T07:51:24;1.40;;;0.50;;
37647;SDS011;23490;53.656;10.076;2022-09-01T07:53:50;1.50;;;0.73;;
37647;SDS011;23490;53.656;10.076;2022-09-01T07:56:17;1.63;;;0.60;;
37647;SDS011;23490;53.656;10.076;2022-09-01T07:58:45;0.95;;;0.50;;
37647;SDS011;23490;53.656;10.076;2022-09-01T08:01:13;1.02;;;0.50;;
37647;SDS011;23490;53.656;10.076;2022-09-01T08:03:43;1.52;;;0.50;;
37647;SDS011;23490;53.656;10.076;2022-09-01T08:06:14;1.17;;;0.50;;
37647;SDS011;23490;53.656;10.076;2022-09-01T08:08:44;1.23;;;0.40;;
37647;SDS011;23490;53.656;10.076;2022-09-01T08:11:14;2.22;;;0.52;;
37647;SDS011;23490;53.656;10.076;2022-09-01T08:13:42;1.85;;;0.45;;
37647;SDS011;23490;53.656;10.076;2022-09-01T08:16:07;1.80;;;0.75;;
37647;SDS011;23490;53.656;10.076;2022-09-01T08:18:34;0.40;;;0.40;;
37647;SDS011;23490;53.656;10.076;2022-09-01T08:21:04;1.05;;;0.50;;
37647;SDS011;23490;53.656;10.076;2022-09-01T08:23:30;0.88;;;0.60;;
37647;SDS011;23490;53.656;10.076;2022-09-01T08:26:15;1.73;;;0.40;;
37647;SDS011;23490;53.656;10.076;2022-09-01T08:28:43;1.52;;;0.50;;
37647;SDS011;23490;53.656;10.076;2022-09-01T08:31:09;0.88;;;0.45;;
37647;SDS011;23490;53.656;10.076;2022-09-01T08:33:37;0.88;;;0.47;;
37647;SDS011;23490;53.656;10.076;2022-09-01T08:36:03;1.23;;;0.52;;
37647;SDS011;23490;53.656;10.076;2022-09-01T08:38:28;1.83;;;0.40;;
37647;SDS011;23490;53.656;10.076;2022-09-01T08:40:54;1.83;;;0.60;;
37647;SDS011;23490;53.656;10.076;2022-09-01T08:46:11;0.60;;;0.40;;
37647;SDS011;23490;53.656;10.076;2022-09-01T08:48:42;0.88;;;0.40;;
37647;SDS011;23490;53.656;10.076;2022-09-01T08:53:49;2.15;;;0.57;;
37647;SDS011;23490;53.656;10.076;2022-09-01T08:56:22;0.82;;;0.60;;
37647;SDS011;23490;53.656;10.076;2022-09-01T08:58:47;0.75;;;0.40;;
37647;SDS011;23490;53.656;10.076;2022-09-01T09:01:24;0.70;;;0.45;;
37647;SDS011;23490;53.656;10.076;2022-09-01T09:04:00;2.08;;;0.40;;
37647;SDS011;23490;53.656;10.076;2022-09-01T09:09:29;0.40;;;0.40;;
37647;SDS011;23490;53.656;10.076;2022-09-01T09:12:05;2.45;;;0.60;;
37647;SDS011;23490;53.656;10.076;2022-09-01T09:15:04;0.90;;;0.50;;
37647;SDS011;23490;53.656;10.076;2022-09-01T09:17:46;4.00;;;0.70;;
37647;SDS011;23490;53.656;10.076;2022-09-01T09:20:17;0.47;;;0.43;;
37647;SDS011;23490;53.656;10.076;2022-09-01T09:22:43;1.08;;;0.50;;
37647;SDS011;23490;53.656;10.076;2022-09-01T09:25:12;1.58;;;0.60;;
37647;SDS011;23490;53.656;10.076;2022-09-01T09:27:40;0.90;;;0.40;;
37647;SDS011;23490;53.656;10.076;2022-09-01T09:30:09;1.23;;;0.50;;
37647;SDS011;23490;53.656;10.076;2022-09-01T09:35:32;1.60;;;0.50;;
37647;SDS011;23490;53.656;10.076;2022-09-01T09:43:28;0.57;;;0.52;;
37647;SDS011;23490;53.656;10.076;2022-09-01T09:49:11;0.40;;;0.40;;
37647;SDS011;23490;53.656;10.076;2022-09-01T09:51:44;0.80;;;0.40;;
37647;SDS011;23490;53.656;10.076;2022-09-01T09:54:15;0.68;;;0.47;;
37647;SDS011;23490;53.656;10.076;2022-09-01T09:56:49;1.10;;;0.60;;
37647;SDS011;23490;53.656;10.076;2022-09-01T10:02:35;3.13;;;0.70;;
37647;SDS011;23490;53.656;10.076;2022-09-01T10:05:01;0.55;;;0.35;;
37647;SDS011;23490;53.656;10.076;2022-09-01T10:07:47;0.98;;;0.45;;
37647;SDS011;23490;53.656;10.076;2022-09-01T10:10:58;0.73;;;0.57;;
37647;SDS011;23490;53.656;10.076;2022-09-01T10:13:13;1.38;;;0.50;;
37647;SDS011;23490;53.656;10.076;2022-09-01T10:15:48;0.75;;;0.45;;
37647;SDS011;23490;53.656;10.076;2022-09-01T10:18:16;1.05;;;0.57;;
37647;SDS011;23490;53.656;10.076;2022-09-01T10:23:39;1.48;;;0.40;;
37647;SDS011;23490;53.656;10.076;2022-09-01T10:26:08;0.40;;;0.40;;
37647;SDS011;23490;53.656;10.076;2022-09-01T10:28:45;0.50;;;0.40;;
37647;SDS011;23490;53.656;10.076;2022-09-01T10:31:16;0.80;;;0.50;;
37647;SDS011;23490;53.656;10.076;2022-09-01T10:33:43;0.88;;;0.47;;
37647;SDS011;23490;53.656;10.076;2022-09-01T10:36:08;0.75;;;0.55;;
37647;SDS011;23490;53.656;10.076;2022-09-01T10:38:34;1.65;;;0.85;;
37647;SDS011;23490;53.656;10.076;2022-09-01T10:40:59;0.70;;;0.57;;
37647;SDS011;23490;53.656;10.076;2022-09-01T10:43:37;3.35;;;0.70;;
37647;SDS011;23490;53.656;10.076;2022-09-01T10:48:49;1.65;;;0.65;;
37647;SDS011;23490;53.656;10.076;2022-09-01T10:56:19;1.27;;;0.70;;
37647;SDS011;23490;53.656;10.076;2022-09-01T10:58:56;0.85;;;0.47;;
37647;SDS011;23490;53.656;10.076;2022-09-01T11:04:09;0.45;;;0.40;;
37647;SDS011;23490;53.656;10.076;2022-09-01T11:12:18;0.80;;;0.50;;
37647;SDS011;23490;53.656;10.076;2022-09-01T11:15:01;0.77;;;0.60;;
37647;SDS011;23490;53.656;10.076;2022-09-01T11:17:33;0.43;;;0.40;;
37647;SDS011;23490;53.656;10.076;2022-09-01T11:30:17;0.85;;;0.52;;
37647;SDS011;23490;53.656;10.076;2022-09-01T11:32:49;1.25;;;0.70;;
37647;SDS011;23490;53.656;10.076;2022-09-01T11:35:22;1.15;;;0.70;;
37647;SDS011;23490;53.656;10.076;2022-09-01T11:37:51;1.17;;;0.60;;
37647;SDS011;23490;53.656;10.076;2022-09-01T11:40:21;0.88;;;0.50;;
37647;SDS011;23490;53.656;10.076;2022-09-01T11:42:50;3.67;;;0.70;;
37647;SDS011;23490;53.656;10.076;2022-09-01T11:45:19;1.95;;;0.55;;
37647;SDS011;23490;53.656;10.076;2022-09-01T11:52:40;1.27;;;0.70;;
37647;SDS011;23490;53.656;10.076;2022-09-01T11:55:07;1.58;;;0.60;;
37647;SDS011;23490;53.656;10.076;2022-09-01T11:57:37;1.60;;;1.38;;
37647;SDS011;23490;53.656;10.076;2022-09-01T12:00:09;0.85;;;0.60;;
37647;SDS011;23490;53.656;10.076;2022-09-01T12:02:41;2.08;;;0.73;;
37647;SDS011;23490;53.656;10.076;2022-09-01T12:07:53;1.85;;;0.88;;
37647;SDS011;23490;53.656;10.076;2022-09-01T12:10:22;1.98;;;0.60;;
37647;SDS011;23490;53.656;10.076;2022-09-01T12:16:03;0.50;;;0.40;;
37647;SDS011;23490;53.656;10.076;2022-09-01T12:18:42;1.80;;;0.70;;
37647;SDS011;23490;53.656;10.076;2022-09-01T12:21:16;1.13;;;0.52;;
37647;SDS011;23490;53.656;10.076;2022-09-01T12:23:46;1.55;;;0.50;;
37647;SDS011;23490;53.656;10.076;2022-09-01T12:26:15;3.03;;;0.65;;
37647;SDS011;23490;53.656;10.076;2022-09-01T12:28:44;0.68;;;0.50;;
37647;SDS011;23490;53.656;10.076;2022-09-01T12:33:41;4.00;;;0.88;;
37647;SDS011;23490;53.656;10.076;2022-09-01T12:36:27;0.85;;;0.50;;
37647;SDS011;23490;53.656;10.076;2022-09-01T12:39:17;0.88;;;0.43;;
37647;SDS011;23490;53.656;10.076;2022-09-01T12:42:30;2.38;;;0.55;;
37647;SDS011;23490;53.656;10.076;2022-09-01T12:47:02;0.40;;;0.40;;
37647;SDS011;23490;53.656;10.076;2022-09-01T12:57:24;1.92;;;0.40;;
37647;SDS011;23490;53.656;10.076;2022-09-01T13:05:20;2.15;;;0.55;;
37647;SDS011;23490;53.656;10.076;2022-09-01T13:07:53;1.45;;;0.50;;
37647;SDS011;23490;53.656;10.076;2022-09-01T13:10:20;1.25;;;0.60;;
37647;SDS011;23490;53.656;10.076;2022-09-01T13:12:48;2.72;;;0.73;;
37647;SDS011;23490;53.656;10.076;2022-09-01T13:15:15;0.90;;;0.52;;
37647;SDS011;23490;53.656;10.076;2022-09-01T13:17:40;0.85;;;0.57;;
37647;SDS011;23490;53.656;10.076;2022-09-01T13:20:07;0.80;;;0.50;;
37647;SDS011;23490;53.656;10.076;2022-09-01T13:22:33;0.75;;;0.65;;
37647;SDS011;23490;53.656;10.076;2022-09-01T13:25:00;1.38;;;0.50;;
37647;SDS011;23490;53.656;10.076;2022-09-01T13:27:26;1.50;;;0.50;;
37647;SDS011;23490;53.656;10.076;2022-09-01T13:29:51;2.13;;;0.47;;
37647;SDS011;23490;53.656;10.076;2022-09-01T13:32:17;1.42;;;0.50;;
37647;SDS011;23490;53.656;10.076;2022-09-01T13:34:43;0.70;;;0.55;;
37647;SDS011;23490;53.656;10.076;2022-09-01T13:37:09;1.52;;;0.60;;
37647;SDS011;23490;53.656;10.076;2022-09-01T13:39:34;1.63;;;0.55;;
37647;SDS011;23490;53.656;10.076;2022-09-01T13:41:59;2.60;;;0.65;;
37647;SDS011;23490;53.656;10.076;2022-09-01T13:44:25;2.05;;;0.70;;
37647;SDS011;23490;53.656;10.076;2022-09-01T13:46:50;1.35;;;0.55;;
37647;SDS011;23490;53.656;10.076;2022-09-01T13:49:16;1.35;;;0.60;;
37647;SDS011;23490;53.656;10.076;2022-09-01T13:51:41;1.38;;;0.63;;
37647;SDS011;23490;53.656;10.076;2022-09-01T13:54:06;1.25;;;0.77;;
37647;SDS011;23490;53.656;10.076;2022-09-01T13:56:32;1.55;;;0.50;;
37647;SDS011;23490;53.656;10.076;2022-09-01T13:58:57;1.52;;;0.60;;
37647;SDS011;23490;53.656;10.076;2022-09-01T14:01:22;1.15;;;0.80;;
37647;SDS011;23490;53.656;10.076;2022-09-01T14:03:48;1.13;;;0.80;;
37647;SDS011;23490;53.656;10.076;2022-09-01T14:06:14;1.75;;;0.70;;
37647;SDS011;23490;53.656;10.076;2022-09-01T14:08:40;1.50;;;0.73;;
37647;SDS011;23490;53.656;10.076;2022-09-01T14:11:05;1.13;;;0.70;;
37647;SDS011;23490;53.656;10.076;2022-09-01T14:13:31;2.22;;;0.60;;
37647;SDS011;23490;53.656;10.076;2022-09-01T14:15:58;2.22;;;0.95;;
37647;SDS011;23490;53.656;10.076;2022-09-01T14:18:24;1.50;;;0.70;;
37647;SDS011;23490;53.656;10.076;2022-09-01T14:21:00;2.75;;;1.05;;
37647;SDS011;23490;53.656;10.076;2022-09-01T14:23:26;0.93;;;0.52;;
37647;SDS011;23490;53.656;10.076;2022-09-01T14:25:52;1.45;;;0.80;;
37647;SDS011;23490;53.656;10.076;2022-09-01T14:28:18;3.05;;;0.60;;
37647;SDS011;23490;53.656;10.076;2022-09-01T14:30:46;0.70;;;0.45;;
37647;SDS011;23490;53.656;10.076;2022-09-01T14:33:13;2.55;;;0.60;;
37647;SDS011;23490;53.656;10.076;2022-09-01T14:35:39;0.88;;;0.40;;
37647;SDS011;23490;53.656;10.076;2022-09-01T14:38:06;1.27;;;0.55;;
37647;SDS011;23490;53.656;10.076;2022-09-01T14:40:33;2.53;;;0.70;;
37647;SDS011;23490;53.656;10.076;2022-09-01T14:43:01;2.70;;;0.70;;
37647;SDS011;23490;53.656;10.076;2022-09-01T14:45:29;1.08;;;0.50;;
37647;SDS011;23490;53.656;10.076;2022-09-01T14:47:56;1.60;;;0.50;;
37647;SDS011;23490;53.656;10.076;2022-09-01T14:50:24;1.13;;;0.50;;
37647;SDS011;23490;53.656;10.076;2022-09-01T14:52:54;0.88;;;0.50;;
37647;SDS011;23490;53.656;10.076;2022-09-01T14:57:47;1.00;;;0.60;;
37647;SDS011;23490;53.656;10.076;2022-09-01T15:00:12;0.40;;;0.40;;
37647;SDS011;23490;53.656;10.076;2022-09-01T15:02:39;0.50;;;0.40;;
37647;SDS011;23490;53.656;10.076;2022-09-01T15:05:06;1.88;;;0.50;;
37647;SDS011;23490;53.656;10.076;2022-09-01T15:07:33;0.80;;;0.65;;
37647;SDS011;23490;53.656;10.076;2022-09-01T15:09:58;0.80;;;0.50;;
37647;SDS011;23490;53.656;10.076;2022-09-01T15:12:24;1.70;;;0.50;;
37647;SDS011;23490;53.656;10.076;2022-09-01T15:14:50;0.43;;;0.38;;
37647;SDS011;23490;53.656;10.076;2022-09-01T15:17:15;2.85;;;0.68;;
37647;SDS011;23490;53.656;10.076;2022-09-01T15:19:40;3.17;;;0.70;;
37647;SDS011;23490;53.656;10.076;2022-09-01T15:22:07;1.48;;;0.70;;
37647;SDS011;23490;53.656;10.076;2022-09-01T15:24:35;1.55;;;0.43;;
37647;SDS011;23490;53.656;10.076;2022-09-01T15:27:01;1.15;;;0.40;;
37647;SDS011;23490;53.656;10.076;2022-09-01T15:29:26;2.33;;;0.65;;
37647;SDS011;23490;53.656;10.076;2022-09-01T15:31:52;3.28;;;0.45;;
37647;SDS011;23490;53.656;10.076;2022-09-01T15:34:17;2.00;;;0.95;;
37647;SDS011;23490;53.656;10.076;2022-09-01T15:36:43;1.73;;;0.60;;
37647;SDS011;23490;53.656;10.076;2022-09-01T15:39:09;1.02;;;0.45;;
37647;SDS011;23490;53.656;10.076;2022-09-01T15:41:35;1.10;;;0.70;;
37647;SDS011;23490;53.656;10.076;2022-09-01T15:44:02;0.80;;;0.50;;
37647;SDS011;23490;53.656;10.076;2022-09-01T15:46:30;1.73;;;0.50;;
37647;SDS011;23490;53.656;10.076;2022-09-01T15:48:58;2.22;;;0.40;;
37647;SDS011;23490;53.656;10.076;2022-09-01T15:51:26;0.50;;;0.40;;
37647;SDS011;23490;53.656;10.076;2022-09-01T15:53:56;1.27;;;0.68;;
37647;SDS011;23490;53.656;10.076;2022-09-01T15:56:24;1.37;;;0.60;;
37647;SDS011;23490;53.656;10.076;2022-09-01T15:58:49;2.13;;;0.50;;
37647;SDS011;23490;53.656;10.076;2022-09-01T16:01:16;1.60;;;0.60;;
37647;SDS011;23490;53.656;10.076;2022-09-01T16:03:42;1.33;;;0.50;;
37647;SDS011;23490;53.656;10.076;2022-09-01T16:06:07;1.95;;;0.50;;
37647;SDS011;23490;53.656;10.076;2022-09-01T16:08:33;1.05;;;0.43;;
37647;SDS011;23490;53.656;10.076;2022-09-01T16:10:59;2.10;;;0.50;;
37647;SDS011;23490;53.656;10.076;2022-09-01T16:13:26;2.15;;;0.52;;
37647;SDS011;23490;53.656;10.076;2022-09-01T16:18:47;2.38;;;0.68;;
37647;SDS011;23490;53.656;10.076;2022-09-01T16:24:39;2.70;;;0.57;;
37647;SDS011;23490;53.656;10.076;2022-09-01T16:27:14;0.98;;;0.50;;
37647;SDS011;23490;53.656;10.076;2022-09-01T16:29:49;2.10;;;0.55;;
37647;SDS011;23490;53.656;10.076;2022-09-01T16:32:18;2.50;;;0.57;;